Time;durP1;ratioP1;P1;durP2;ratioP2;P2;SDS_P1;SDS_P2;PMS_P1;PMS_P2;Temp;Humidity;BMP_temperature;BMP_pressure;BME280_temperature;BME280_humidity;BME280_pressure;Samples;Min_cycle;Max_cycle;Signal;HPM_P1;HPM_P2
2024/03/08 00:00:45;;;;;;;;;;;;;;;8.03;100.00;98964.59;5036833;28;19921;-80
2024/03/08 00:03:11;;;;;;;;;;;;;;;7.94;100.00;98952.53;5030470;28;19917;-79
2024/03/08 00:05:38;;;;;;;;;;;;;;;7.94;100.00;98950.56;5041164;28;20332;-79
2024/03/08 00:08:04;;;;;;;;;;;;;;;7.96;100.00;98952.88;5012651;28;19930;-79
2024/03/08 00:10:29;;;;;;;;;;;;;;;7.96;100.00;98953.66;5020653;28;19921;-80
2024/03/08 00:12:55;;;;;;;;;;;;;;;7.96;100.00;98952.88;5013242;28;19928;-80
2024/03/08 00:15:22;;;;;;;;;;;;;;;7.90;100.00;98944.31;5031392;28;19972;-79
2024/03/08 00:17:48;;;;;;;;;;;;;;;7.85;100.00;98944.00;5043425;28;20012;-79
2024/03/08 00:20:13;;;;;;;;;;;;;;;7.83;100.00;98944.44;5036621;28;20064;-79
2024/03/08 00:22:38;;;;;;;;;;;;;;;7.83;100.00;98938.16;5036079;28;20412;-79
2024/03/08 00:25:04;;;;;;;;;;;;;;;7.84;100.00;98943.22;5036608;28;19924;-78
2024/03/08 00:27:33;;;;;;;;;;;;;;;7.88;100.00;98937.69;5036526;28;20508;-80
2024/03/08 00:29:58;;;;;;;;;;;;;;;7.91;100.00;98934.88;5036652;28;20364;-79
2024/03/08 00:32:31;;;;;;;;;;;;;;;7.95;100.00;98935.63;5020328;28;19917;-79
2024/03/08 00:34:56;;;;;;;;;;;;;;;7.96;100.00;98928.13;5038147;28;20305;-81
2024/03/08 00:37:22;;;;;;;;;;;;;;;7.92;100.00;98933.69;5037893;28;19991;-80
2024/03/08 00:39:51;;;;;;;;;;;;;;;7.96;100.00;98931.66;5036853;28;19917;-81
2024/03/08 00:42:16;;;;;;;;;;;;;;;8.00;100.00;98932.41;5037866;28;19975;-80
2024/03/08 00:44:42;;;;;;;;;;;;;;;8.00;100.00;98935.16;5036695;28;20302;-79
2024/03/08 00:47:07;;;;;;;;;;;;;;;8.02;100.00;98927.25;5037744;28;20394;-79
2024/03/08 00:49:33;;;;;;;;;;;;;;;8.00;100.00;98928.88;5036831;28;20015;-79
2024/03/08 00:51:58;;;;;;;;;;;;;;;7.98;100.00;98921.03;5036035;28;19918;-79
2024/03/08 00:54:23;;;;;;;;;;;;;;;7.97;100.00;98924.97;5036460;28;19917;-79
2024/03/08 00:56:49;;;;;;;;;;;;;;;7.98;100.00;98926.53;5036424;28;20283;-79
2024/03/08 00:59:14;;;;;;;;;;;;;;;7.94;100.00;98925.03;5037860;28;19917;-78
2024/03/08 01:01:40;;;;;;;;;;;;;;;7.97;100.00;98922.22;5040674;28;19971;-78
2024/03/08 01:04:05;;;;;;;;;;;;;;;7.99;100.00;98919.84;5046255;28;19971;-78
2024/03/08 01:06:31;;;;;;;;;;;;;;;8.04;100.00;98919.38;5019959;28;19917;-78
2024/03/08 01:08:56;;;;;;;;;;;;;;;8.08;100.00;98922.84;5048684;28;19928;-78
2024/03/08 01:11:22;;;;;;;;;;;;;;;8.09;100.00;98924.41;5039458;28;20395;-79
2024/03/08 01:13:47;;;;;;;;;;;;;;;8.08;100.00;98911.06;5037301;28;19917;-78
2024/03/08 01:16:12;;;;;;;;;;;;;;;8.11;100.00;98913.78;5036315;28;20371;-78
2024/03/08 01:18:38;;;;;;;;;;;;;;;8.11;100.00;98916.53;5037798;28;19928;-79
2024/03/08 01:21:03;;;;;;;;;;;;;;;7.95;100.00;98916.38;5036122;28;19923;-78
2024/03/08 01:23:29;;;;;;;;;;;;;;;7.89;100.00;98912.53;5036197;28;19917;-78
2024/03/08 01:25:56;;;;;;;;;;;;;;;7.94;100.00;98917.56;5047376;28;19921;-79
2024/03/08 01:28:25;;;;;;;;;;;;;;;7.91;100.00;98920.34;5037516;28;19967;-79
2024/03/08 01:30:55;;;;;;;;;;;;;;;7.93;100.00;98916.00;5034336;28;19960;-78
2024/03/08 01:33:22;;;;;;;;;;;;;;;7.94;100.00;98917.56;5033093;28;19917;-78
2024/03/08 01:35:47;;;;;;;;;;;;;;;7.85;100.00;98911.00;5037719;28;19924;-78
2024/03/08 01:38:13;;;;;;;;;;;;;;;7.70;100.00;98910.41;5021519;28;19917;-78
2024/03/08 01:40:40;;;;;;;;;;;;;;;7.70;100.00;98915.91;5030665;28;19917;-78
2024/03/08 01:43:22;;;;;;;;;;;;;;;7.65;100.00;98916.38;5032889;28;20019;-79
2024/03/08 01:45:48;;;;;;;;;;;;;;;7.49;100.00;98911.44;5003832;28;19921;-78
2024/03/08 01:48:17;;;;;;;;;;;;;;;7.53;100.00;98916.91;5032869;28;19975;-77
2024/03/08 01:50:42;;;;;;;;;;;;;;;7.39;100.00;98915.09;5032596;28;20344;-77
2024/03/08 01:53:10;;;;;;;;;;;;;;;7.26;100.00;98922.28;5033866;28;19917;-78
2024/03/08 01:55:36;;;;;;;;;;;;;;;7.20;100.00;98921.97;5040691;28;19928;-78
2024/03/08 01:58:03;;;;;;;;;;;;;;;7.14;100.00;98926.34;5040301;28;19917;-78
2024/03/08 02:00:29;;;;;;;;;;;;;;;7.11;100.00;98927.16;5035060;28;20000;-78
2024/03/08 02:02:55;;;;;;;;;;;;;;;7.11;100.00;98920.88;5033578;28;20346;-78
2024/03/08 02:05:21;;;;;;;;;;;;;;;7.06;100.00;98916.59;5034126;28;19924;-78
2024/03/08 02:07:46;;;;;;;;;;;;;;;7.14;100.00;98922.81;5032870;28;20012;-78
2024/03/08 02:10:12;;;;;;;;;;;;;;;7.17;100.00;98916.50;5028355;28;19965;-78
2024/03/08 02:12:38;;;;;;;;;;;;;;;7.14;100.00;98922.81;5045615;28;19912;-79
2024/03/08 02:15:03;;;;;;;;;;;;;;;7.05;100.00;98912.31;5033903;28;19917;-78
2024/03/08 02:17:30;;;;;;;;;;;;;;;7.04;100.00;98921.72;5032104;28;19917;-78
2024/03/08 02:19:55;;;;;;;;;;;;;;;7.19;100.00;98917.66;5033713;28;19921;-78
2024/03/08 02:22:20;;;;;;;;;;;;;;;7.21;100.00;98917.25;5033430;28;20025;-78
2024/03/08 02:24:46;;;;;;;;;;;;;;;7.24;100.00;98917.19;5033531;28;19917;-78
2024/03/08 02:27:11;;;;;;;;;;;;;;;7.28;100.00;98917.19;5015661;28;19917;-79
2024/03/08 02:29:37;;;;;;;;;;;;;;;7.33;100.00;98925.75;5032161;28;19917;-78
2024/03/08 02:32:03;;;;;;;;;;;;;;;7.27;100.00;98927.38;5032903;28;20008;-79
2024/03/08 02:34:28;;;;;;;;;;;;;;;7.27;100.00;98923.84;5031705;28;19917;-78
2024/03/08 02:36:56;;;;;;;;;;;;;;;7.18;100.00;98929.03;5014385;28;19959;-78
2024/03/08 02:39:22;;;;;;;;;;;;;;;7.16;100.00;98926.72;5015385;28;19917;-78
2024/03/08 02:41:47;;;;;;;;;;;;;;;7.25;100.00;98928.97;5030448;28;19924;-78
2024/03/08 02:44:12;;;;;;;;;;;;;;;7.14;100.00;98928.31;5031176;28;19975;-78
2024/03/08 02:46:38;;;;;;;;;;;;;;;7.15;100.00;98933.41;5031586;28;20284;-78
2024/03/08 02:49:03;;;;;;;;;;;;;;;7.03;100.00;98927.63;5014782;28;19932;-78
2024/03/08 02:51:28;;;;;;;;;;;;;;;7.08;100.00;98929.94;5031044;28;20398;-78
2024/03/08 02:53:54;;;;;;;;;;;;;;;7.17;100.00;98933.00;5031255;28;20344;-78
2024/03/08 02:56:19;;;;;;;;;;;;;;;7.06;100.00;98927.59;5032654;28;19924;-79
2024/03/08 02:58:48;;;;;;;;;;;;;;;7.06;100.00;98932.28;5038232;28;19920;-78
2024/03/08 03:01:14;;;;;;;;;;;;;;;7.03;100.00;98933.13;5034352;28;19966;-80
2024/03/08 03:03:39;;;;;;;;;;;;;;;7.07;100.00;98933.84;5033254;28;19921;-80
2024/03/08 03:06:07;;;;;;;;;;;;;;;7.16;100.00;98932.22;5031617;28;19929;-80
2024/03/08 03:08:32;;;;;;;;;;;;;;;7.15;100.00;98930.66;5014329;28;19929;-80
2024/03/08 03:10:57;;;;;;;;;;;;;;;7.06;100.00;98935.03;5014788;28;19924;-79
2024/03/08 03:13:23;;;;;;;;;;;;;;;7.11;100.00;98931.88;5032522;28;19927;-78
2024/03/08 03:15:48;;;;;;;;;;;;;;;7.05;100.00;98933.50;5032393;28;20314;-77
2024/03/08 03:18:14;;;;;;;;;;;;;;;7.02;100.00;98935.09;5031173;28;19927;-80
2024/03/08 03:20:42;;;;;;;;;;;;;;;7.07;100.00;98934.63;5030972;28;19924;-78
2024/03/08 03:23:08;;;;;;;;;;;;;;;6.97;100.00;98935.53;5031217;28;19921;-78
2024/03/08 03:25:35;;;;;;;;;;;;;;;7.06;100.00;98941.31;5030887;28;19917;-78
2024/03/08 03:28:01;;;;;;;;;;;;;;;7.13;100.00;98941.25;5031158;28;20552;-78
2024/03/08 03:30:30;;;;;;;;;;;;;;;6.93;100.00;98945.78;5014220;28;19967;-77
2024/03/08 03:32:58;;;;;;;;;;;;;;;7.10;100.00;98938.56;5031127;28;19921;-77
2024/03/08 03:35:24;;;;;;;;;;;;;;;7.20;100.00;98946.69;5032957;28;19917;-79
2024/03/08 03:38:06;;;;;;;;;;;;;;;7.26;100.00;98947.03;5024003;28;19971;-77
2024/03/08 03:40:32;;;;;;;;;;;;;;;7.27;100.00;98943.09;5031991;28;20387;-78
2024/03/08 03:42:57;;;;;;;;;;;;;;;7.27;100.00;98952.13;5032070;28;20007;-78
2024/03/08 03:45:25;;;;;;;;;;;;;;;7.26;100.00;98945.06;5030779;28;20414;-78
2024/03/08 03:47:51;;;;;;;;;;;;;;;7.27;100.00;98943.88;5030641;28;20082;-78
2024/03/08 03:50:18;;;;;;;;;;;;;;;7.21;100.00;98950.22;5030241;28;20705;-78
2024/03/08 03:52:44;;;;;;;;;;;;;;;7.10;100.00;98949.53;5032229;28;19967;-79
2024/03/08 03:55:11;;;;;;;;;;;;;;;6.97;100.00;98952.00;5013436;28;19917;-79
2024/03/08 03:57:37;;;;;;;;;;;;;;;7.00;100.00;98956.69;5014098;28;20445;-78
2024/03/08 04:00:02;;;;;;;;;;;;;;;7.09;100.00;98959.75;5030176;28;19921;-80
2024/03/08 04:02:28;;;;;;;;;;;;;;;7.03;100.00;98960.59;5030232;28;19917;-79
2024/03/08 04:04:54;;;;;;;;;;;;;;;6.93;100.00;98962.25;5029915;28;20437;-78
2024/03/08 04:07:19;;;;;;;;;;;;;;;6.98;100.00;98964.56;5030310;28;19932;-79
2024/03/08 04:09:45;;;;;;;;;;;;;;;7.02;100.00;98962.56;5030521;28;19925;-79
2024/03/08 04:12:10;;;;;;;;;;;;;;;6.99;100.00;98962.59;5030469;28;19917;-80
2024/03/08 04:14:36;;;;;;;;;;;;;;;7.04;100.00;98962.16;5029660;28;19921;-79
2024/03/08 04:17:02;;;;;;;;;;;;;;;7.01;100.00;98961.00;5014324;28;19971;-80
2024/03/08 04:19:28;;;;;;;;;;;;;;;6.93;100.00;98963.00;5030135;28;19917;-79
2024/03/08 04:21:53;;;;;;;;;;;;;;;6.96;100.00;98969.69;5030189;28;19921;-78
2024/03/08 04:24:18;;;;;;;;;;;;;;;6.98;100.00;98961.81;5029905;28;19921;-79
2024/03/08 04:26:43;;;;;;;;;;;;;;;7.04;100.00;98967.66;5031643;28;20338;-79
2024/03/08 04:29:09;;;;;;;;;;;;;;;6.99;100.00;98966.13;5013505;28;19924;-79
2024/03/08 04:31:34;;;;;;;;;;;;;;;7.01;100.00;98971.19;5013541;28;20396;-79
2024/03/08 04:33:59;;;;;;;;;;;;;;;6.95;100.00;98968.91;5013398;28;19917;-80
2024/03/08 04:36:24;;;;;;;;;;;;;;;6.90;100.00;98974.81;5013653;28;20462;-80
2024/03/08 04:38:51;;;;;;;;;;;;;;;6.99;100.00;98977.13;5029611;28;20016;-79
2024/03/08 04:41:16;;;;;;;;;;;;;;;7.03;100.00;98969.63;5013410;28;19921;-79
2024/03/08 04:43:42;;;;;;;;;;;;;;;7.06;100.00;98971.53;5031270;28;20586;-79
2024/03/08 04:46:07;;;;;;;;;;;;;;;7.05;100.00;98975.50;5013078;28;19975;-79
2024/03/08 04:48:33;;;;;;;;;;;;;;;7.05;100.00;98977.47;5031164;28;19917;-79
2024/03/08 04:50:58;;;;;;;;;;;;;;;7.01;100.00;98971.19;5030045;28;19917;-80
2024/03/08 04:53:23;;;;;;;;;;;;;;;6.99;100.00;98971.63;5044339;28;20381;-79
2024/03/08 04:55:49;;;;;;;;;;;;;;;7.00;100.00;98978.66;5013493;28;20402;-79
2024/03/08 04:58:14;;;;;;;;;;;;;;;6.99;100.00;98984.56;5042925;28;20478;-79
2024/03/08 05:00:39;;;;;;;;;;;;;;;6.98;100.00;98985.75;5029911;28;19921;-79
2024/03/08 05:03:05;;;;;;;;;;;;;;;6.99;100.00;98990.06;5031616;28;19974;-79
2024/03/08 05:05:30;;;;;;;;;;;;;;;6.97;100.00;98984.97;5030859;28;19918;-79
2024/03/08 05:07:56;;;;;;;;;;;;;;;6.98;100.00;98991.25;5034791;28;20405;-79
2024/03/08 05:10:21;;;;;;;;;;;;;;;7.03;100.00;98990.81;5033284;28;20478;-79
2024/03/08 05:12:47;;;;;;;;;;;;;;;7.00;100.00;98992.38;5034611;28;19933;-79
2024/03/08 05:15:12;;;;;;;;;;;;;;;6.98;100.00;99000.28;5033087;28;19928;-78
2024/03/08 05:17:37;;;;;;;;;;;;;;;7.02;100.00;98998.28;5033381;28;19921;-78
2024/03/08 05:20:03;;;;;;;;;;;;;;;7.03;100.00;98999.84;5034529;28;19921;-79
2024/03/08 05:22:29;;;;;;;;;;;;;;;7.04;100.00;99006.13;5033111;28;19923;-79
2024/03/08 05:24:54;;;;;;;;;;;;;;;6.95;100.00;99009.31;5028203;28;19921;-80
2024/03/08 05:27:19;;;;;;;;;;;;;;;6.85;100.00;99008.22;5011916;28;19917;-79
2024/03/08 05:29:46;;;;;;;;;;;;;;;6.88;100.00;99015.63;5029802;28;19979;-81
2024/03/08 05:32:12;;;;;;;;;;;;;;;6.92;100.00;99021.13;5026863;28;20004;-81
2024/03/08 05:34:37;;;;;;;;;;;;;;;6.93;100.00;99020.69;5011717;28;20402;-81
2024/03/08 05:37:02;;;;;;;;;;;;;;;6.90;100.00;99028.97;5034717;28;19968;-81
2024/03/08 05:39:28;;;;;;;;;;;;;;;6.85;100.00;99024.69;5045914;28;19920;-78
2024/03/08 05:41:55;;;;;;;;;;;;;;;6.86;100.00;99017.25;5036428;28;19913;-79
2024/03/08 05:44:20;;;;;;;;;;;;;;;6.83;100.00;99034.50;5034173;28;19913;-80
2024/03/08 05:46:48;;;;;;;;;;;;;;;6.83;100.00;99040.00;5033362;28;19917;-81
2024/03/08 05:49:14;;;;;;;;;;;;;;;6.84;100.00;99041.56;5034057;28;19913;-80
2024/03/08 05:51:40;;;;;;;;;;;;;;;6.78;100.00;99037.69;5034582;28;19918;-80
2024/03/08 05:54:09;;;;;;;;;;;;;;;6.84;100.00;99042.34;5033008;28;20371;-80
2024/03/08 05:56:35;;;;;;;;;;;;;;;6.85;100.00;99040.41;5033048;28;19926;-80
2024/03/08 05:59:01;;;;;;;;;;;;;;;6.93;100.00;99047.41;5032431;28;20349;-81
2024/03/08 06:01:26;;;;;;;;;;;;;;;6.90;100.00;99053.69;5033241;28;20389;-79
2024/03/08 06:03:58;;;;;;;;;;;;;;;6.95;100.00;99053.25;5048068;28;19917;-78
2024/03/08 06:06:24;;;;;;;;;;;;;;;6.89;100.00;99055.66;5045171;28;19924;-79
2024/03/08 06:08:49;;;;;;;;;;;;;;;6.92;100.00;99056.81;5034054;28;20397;-79
2024/03/08 06:11:17;;;;;;;;;;;;;;;6.84;100.00;99058.84;5042162;28;19928;-80
2024/03/08 06:13:42;;;;;;;;;;;;;;;6.86;100.00;99053.72;5038922;28;20469;-83
2024/03/08 06:16:08;;;;;;;;;;;;;;;6.94;100.00;99059.94;5014036;28;19913;-80
2024/03/08 06:18:36;;;;;;;;;;;;;;;6.90;100.00;99056.44;5027246;28;20691;-81
2024/03/08 06:21:02;;;;;;;;;;;;;;;6.94;100.00;99066.22;5010838;28;19917;-81
2024/03/08 06:23:28;;;;;;;;;;;;;;;6.98;100.00;99073.66;5006674;28;19975;-80
2024/03/08 06:25:54;;;;;;;;;;;;;;;6.85;100.00;99071.38;5029440;28;20305;-80
2024/03/08 06:28:19;;;;;;;;;;;;;;;7.00;100.00;99077.53;5014937;28;19917;-80
2024/03/08 06:30:45;;;;;;;;;;;;;;;6.96;100.00;99076.81;5029994;28;19913;-80
2024/03/08 06:33:10;;;;;;;;;;;;;;;6.89;100.00;99071.34;5032705;28;20394;-80
2024/03/08 06:35:37;;;;;;;;;;;;;;;6.85;100.00;99089.81;5032153;28;20375;-81
2024/03/08 06:38:03;;;;;;;;;;;;;;;6.96;100.00;99074.06;5033411;28;19921;-81
2024/03/08 06:40:29;;;;;;;;;;;;;;;6.93;100.00;99072.13;5046362;28;19920;-79
2024/03/08 06:42:54;;;;;;;;;;;;;;;7.02;100.00;99077.94;5031567;28;20012;-80
2024/03/08 06:45:20;;;;;;;;;;;;;;;7.02;100.00;99077.16;5011963;28;19926;-80
2024/03/08 06:47:46;;;;;;;;;;;;;;;7.14;100.00;99077.47;5022564;28;19988;-80
2024/03/08 06:50:11;;;;;;;;;;;;;;;7.26;100.00;99087.97;5012746;28;20355;-80
2024/03/08 06:52:37;;;;;;;;;;;;;;;7.30;100.00;99083.22;5026834;28;19916;-80
2024/03/08 06:55:05;;;;;;;;;;;;;;;7.33;100.00;99090.66;5033068;28;19920;-81
2024/03/08 06:57:30;;;;;;;;;;;;;;;7.17;100.00;99087.63;5044434;28;19917;-80
2024/03/08 06:59:57;;;;;;;;;;;;;;;7.17;100.00;99098.63;5032758;28;19924;-82
2024/03/08 07:02:24;;;;;;;;;;;;;;;7.25;100.00;99091.88;5048899;28;19952;-81
2024/03/08 07:04:50;;;;;;;;;;;;;;;7.18;100.00;99091.94;5021580;28;20403;-81
2024/03/08 07:07:15;;;;;;;;;;;;;;;7.33;100.00;99098.91;5042179;28;19927;-80
2024/03/08 07:09:42;;;;;;;;;;;;;;;7.28;100.00;99098.56;5042070;28;19991;-84
2024/03/08 07:12:07;;;;;;;;;;;;;;;7.23;100.00;99097.00;5012404;28;20314;-82
2024/03/08 07:14:33;;;;;;;;;;;;;;;7.49;100.00;99103.88;5031804;28;19913;-81
2024/03/08 07:16:58;;;;;;;;;;;;;;;7.53;100.00;99107.38;5032988;28;19921;-82
2024/03/08 07:19:23;;;;;;;;;;;;;;;7.60;100.00;99101.03;5030467;28;19913;-83
2024/03/08 07:21:49;;;;;;;;;;;;;;;7.63;100.00;99105.72;5032521;28;19917;-83
2024/03/08 07:26:43;;;;;;;;;;;;;;;7.77;100.00;99100.09;5031002;28;19920;-83
2024/03/08 07:29:08;;;;;;;;;;;;;;;7.88;100.00;99106.28;5042112;28;19913;-82
2024/03/08 07:34:07;;;;;;;;;;;;;;;7.91;100.00;99107.41;5048064;28;20015;-83
2024/03/08 07:36:33;;;;;;;;;;;;;;;7.85;100.00;99109.03;5017196;28;19986;-83
2024/03/08 07:38:59;;;;;;;;;;;;;;;7.74;100.00;99114.66;5039635;28;19952;-83
2024/03/08 07:41:24;;;;;;;;;;;;;;;7.80;100.00;99109.50;5036127;28;19971;-81
2024/03/08 07:43:49;;;;;;;;;;;;;;;7.95;100.00;99111.72;5036150;28;19980;-82
2024/03/08 07:46:14;;;;;;;;;;;;;;;8.03;100.00;99115.94;5007702;28;19917;-81
2024/03/08 07:48:40;;;;;;;;;;;;;;;8.24;100.00;99111.41;5029267;28;19929;-81
2024/03/08 07:51:05;;;;;;;;;;;;;;;8.45;100.00;99111.94;5028431;28;20024;-81
2024/03/08 07:53:31;;;;;;;;;;;;;;;8.71;100.00;99112.41;5044109;28;19920;-81
2024/03/08 07:55:56;;;;;;;;;;;;;;;8.29;100.00;99116.44;5040324;28;20448;-82
2024/03/08 07:58:21;;;;;;;;;;;;;;;8.37;100.00;99117.97;5036819;28;20275;-82
2024/03/08 08:00:47;;;;;;;;;;;;;;;8.85;100.00;99115.78;5033054;28;19920;-82
2024/03/08 08:03:12;;;;;;;;;;;;;;;8.90;100.00;99112.53;5032703;28;19983;-82
2024/03/08 08:05:38;;;;;;;;;;;;;;;8.82;100.00;99110.28;5030810;28;19924;-82
2024/03/08 08:08:06;;;;;;;;;;;;;;;8.83;100.00;99112.63;5026622;28;19929;-82
2024/03/08 08:10:34;;;;;;;;;;;;;;;9.16;100.00;99118.47;5029190;28;19921;-82
2024/03/08 08:13:00;;;;;;;;;;;;;;;9.13;100.00;99117.31;5029346;28;19920;-81
2024/03/08 08:15:25;;;;;;;;;;;;;;;8.45;100.00;99119.41;5028652;28;20055;-83
2024/03/08 08:17:51;;;;;;;;;;;;;;;8.38;100.00;99116.78;5028632;28;20101;-82
2024/03/08 08:20:18;;;;;;;;;;;;;;;8.53;100.00;99107.91;5030180;28;19917;-82
2024/03/08 08:22:44;;;;;;;;;;;;;;;8.46;100.00;99115.47;5032524;28;19913;-82
2024/03/08 08:25:12;;;;;;;;;;;;;;;8.53;100.00;99116.19;5019561;28;19976;-82
2024/03/08 08:27:39;;;;;;;;;;;;;;;8.92;100.00;99114.91;5041344;28;20017;-82
2024/03/08 08:30:07;;;;;;;;;;;;;;;9.25;100.00;99114.00;5030494;28;19913;-82
2024/03/08 08:32:33;;;;;;;;;;;;;;;9.04;100.00;99113.53;5030318;28;19913;-84
2024/03/08 08:34:59;;;;;;;;;;;;;;;9.04;100.00;99105.28;5013867;28;19971;-82
2024/03/08 08:37:24;;;;;;;;;;;;;;;9.06;100.00;99111.91;5030023;28;20414;-83
2024/03/08 08:39:51;;;;;;;;;;;;;;;9.03;100.00;99118.28;5031716;28;19917;-82
2024/03/08 08:42:17;;;;;;;;;;;;;;;8.95;100.00;99109.31;5035408;28;19924;-82
2024/03/08 08:44:42;;;;;;;;;;;;;;;9.15;100.00;99111.41;5017898;28;19917;-81
2024/03/08 08:47:08;;;;;;;;;;;;;;;9.64;100.00;99112.59;5034183;28;19924;-82
2024/03/08 08:49:33;;;;;;;;;;;;;;;9.48;100.00;99107.72;5017774;28;19917;-82
2024/03/08 08:51:59;;;;;;;;;;;;;;;9.74;100.00;99115.16;5017457;28;19970;-82
2024/03/08 08:54:25;;;;;;;;;;;;;;;9.89;100.00;99112.91;5034046;28;20310;-81
2024/03/08 08:56:50;;;;;;;;;;;;;;;10.60;100.00;99114.34;5033850;28;19917;-83
2024/03/08 08:59:18;;;;;;;;;;;;;;;10.69;100.00;99119.28;5035067;28;19921;-84
2024/03/08 09:01:46;;;;;;;;;;;;;;;11.25;95.24;99112.50;5028907;28;19913;-82
2024/03/08 09:04:12;;;;;;;;;;;;;;;11.48;91.13;99119.09;5009562;28;19913;-82
2024/03/08 09:06:37;;;;;;;;;;;;;;;11.01;92.79;99116.63;5048296;28;20291;-81
2024/03/08 09:09:05;;;;;;;;;;;;;;;10.80;93.86;99122.59;5033351;28;20075;-82
2024/03/08 09:11:30;;;;;;;;;;;;;;;10.62;94.06;99120.22;5033735;28;19944;-81
2024/03/08 09:13:56;;;;;;;;;;;;;;;10.44;97.49;99120.59;5033633;28;20446;-81
2024/03/08 09:16:21;;;;;;;;;;;;;;;10.55;95.73;99123.13;5016808;28;19921;-82
2024/03/08 09:18:48;;;;;;;;;;;;;;;10.66;95.62;99115.41;5033304;28;19944;-84
2024/03/08 09:21:13;;;;;;;;;;;;;;;10.61;94.17;99113.13;5046655;28;19920;-84
2024/03/08 09:23:40;;;;;;;;;;;;;;;10.83;91.14;99107.94;5033996;28;19913;-81
2024/03/08 09:26:08;;;;;;;;;;;;;;;10.79;91.85;99121.06;5017785;28;19923;-80
2024/03/08 09:28:34;;;;;;;;;;;;;;;11.21;89.12;99111.81;5017701;28;19913;-83
2024/03/08 09:31:01;;;;;;;;;;;;;;;11.35;87.33;99114.25;5034031;28;19920;-83
2024/03/08 09:33:28;;;;;;;;;;;;;;;11.14;88.65;99112.00;5034144;28;19947;-84
2024/03/08 09:35:54;;;;;;;;;;;;;;;11.48;85.23;99110.78;5039109;28;19948;-84
2024/03/08 09:38:20;;;;;;;;;;;;;;;11.68;83.32;99125.31;5041767;28;19960;-82
2024/03/08 09:40:45;;;;;;;;;;;;;;;11.38;86.41;99113.41;5034542;28;19913;-82
2024/03/08 09:43:13;;;;;;;;;;;;;;;11.27;90.39;99115.59;5042849;28;19952;-81
2024/03/08 09:45:41;;;;;;;;;;;;;;;11.21;87.12;99114.56;5024014;28;19928;-81
2024/03/08 09:48:13;;;;;;;;;;;;;;;10.89;93.02;99112.53;5033053;28;20414;-80
2024/03/08 09:50:42;;;;;;;;;;;;;;;11.02;88.90;99110.69;5021851;28;19917;-79
2024/03/08 09:53:11;;;;;;;;;;;;;;;10.91;88.42;99106.59;5032570;28;20372;-79
2024/03/08 09:55:37;;;;;;;;;;;;;;;11.01;89.69;99109.13;5040996;28;20417;-80
2024/03/08 10:00:49;;;;;;;;;;;;;;;11.08;89.22;99113.72;5034639;28;19928;-80
2024/03/08 10:03:15;;;;;;;;;;;;;;;11.26;85.10;99108.53;5033372;28;20357;-83
2024/03/08 10:05:44;;;;;;;;;;;;;;;11.25;85.20;99109.75;5033238;28;20303;-81
2024/03/08 10:08:10;;;;;;;;;;;;;;;11.54;82.81;99111.81;5028276;28;20395;-83
2024/03/08 10:10:37;;;;;;;;;;;;;;;11.57;84.10;99113.75;5011323;28;20013;-81
2024/03/08 10:13:05;;;;;;;;;;;;;;;11.70;81.54;99115.34;5036987;28;20023;-81
2024/03/08 10:15:32;;;;;;;;;;;;;;;11.76;81.38;99102.56;5012802;28;19939;-82
2024/03/08 10:17:58;;;;;;;;;;;;;;;11.38;84.05;99112.63;5031845;28;19917;-81
2024/03/08 10:20:24;;;;;;;;;;;;;;;11.40;86.14;99115.72;5032488;28;20401;-81
2024/03/08 10:22:49;;;;;;;;;;;;;;;11.41;85.66;99109.75;5014836;28;19925;-81
2024/03/08 10:25:14;;;;;;;;;;;;;;;11.47;82.14;99104.47;5008599;28;19960;-83
2024/03/08 10:27:43;;;;;;;;;;;;;;;11.46;83.71;99102.13;5017354;28;19917;-82
2024/03/08 10:30:10;;;;;;;;;;;;;;;11.77;80.33;99106.91;5004775;28;19936;-82
2024/03/08 10:32:35;;;;;;;;;;;;;;;11.20;82.32;99101.19;5033416;28;19917;-79
2024/03/08 10:35:01;;;;;;;;;;;;;;;11.46;81.46;99107.66;5016329;28;20291;-81
2024/03/08 10:37:29;;;;;;;;;;;;;;;11.62;81.58;99099.38;5032656;28;19932;-81
2024/03/08 10:40:15;;;;;;;;;;;;;;;11.75;78.02;99097.50;5033756;28;19924;-82
2024/03/08 10:42:48;;;;;;;;;;;;;;;12.10;76.51;99096.56;5042393;28;19975;-81
2024/03/08 10:45:32;;;;;;;;;;;;;;;12.52;73.41;99093.81;5018178;28;19913;-82
2024/03/08 10:48:10;;;;;;;;;;;;;;;12.36;72.47;99088.31;5032487;28;19913;-81
2024/03/08 10:50:36;;;;;;;;;;;;;;;11.79;74.61;99087.88;5021658;28;19920;-81
2024/03/08 10:53:03;;;;;;;;;;;;;;;12.31;78.08;99089.63;5034231;28;19923;-80
2024/03/08 10:55:28;;;;;;;;;;;;;;;12.57;73.25;99079.41;5012314;28;19917;-82
2024/03/08 10:57:54;;;;;;;;;;;;;;;12.46;70.54;99090.81;5027182;28;19966;-80
2024/03/08 11:00:26;;;;;;;;;;;;;;;12.57;69.80;99082.19;5025569;28;19913;-80
2024/03/08 11:02:51;;;;;;;;;;;;;;;12.64;68.12;99084.75;5022893;28;19913;-80
2024/03/08 11:05:35;;;;;;;;;;;;;;;12.31;70.24;99080.53;5028278;28;19914;-80
2024/03/08 11:08:01;;;;;;;;;;;;;;;12.50;68.69;99076.84;5031045;28;20334;-79
2024/03/08 11:10:26;;;;;;;;;;;;;;;12.54;69.18;99074.72;5000231;28;19918;-78
2024/03/08 11:12:52;;;;;;;;;;;;;;;12.54;72.46;99069.19;5022522;28;19991;-79
2024/03/08 11:15:20;;;;;;;;;;;;;;;12.58;68.92;99062.34;5007265;28;19971;-80
2024/03/08 11:17:48;;;;;;;;;;;;;;;12.76;66.77;99067.34;5027280;28;19922;-79
2024/03/08 11:20:15;;;;;;;;;;;;;;;12.84;69.51;99063.13;5012050;28;19917;-79
2024/03/08 11:23:01;;;;;;;;;;;;;;;12.97;64.72;99069.47;5026212;28;20006;-81
2024/03/08 11:25:30;;;;;;;;;;;;;;;12.29;70.02;99061.63;5011951;28;20045;-80
2024/03/08 11:28:18;;;;;;;;;;;;;;;12.58;69.05;99065.09;5010817;28;19913;-78
2024/03/08 11:30:44;;;;;;;;;;;;;;;12.55;71.91;99057.66;5024650;28;19925;-81
2024/03/08 11:33:13;;;;;;;;;;;;;;;12.35;74.20;99061.84;5022076;28;19924;-82
2024/03/08 11:35:39;;;;;;;;;;;;;;;13.20;73.96;99060.03;5011929;28;19917;-79
2024/03/08 11:38:04;;;;;;;;;;;;;;;13.37;68.10;99055.94;5004918;28;20370;-80
2024/03/08 11:40:29;;;;;;;;;;;;;;;13.81;64.21;99056.81;5012622;28;19921;-79
2024/03/08 11:42:55;;;;;;;;;;;;;;;13.81;62.09;99054.03;5032651;28;19917;-81
2024/03/08 11:45:24;;;;;;;;;;;;;;;13.39;64.52;99049.91;5045639;28;19917;-80
2024/03/08 11:47:50;;;;;;;;;;;;;;;12.67;68.20;99047.81;5031746;28;20416;-81
2024/03/08 11:50:15;;;;;;;;;;;;;;;12.26;73.15;99040.31;5031279;28;19948;-80
2024/03/08 11:52:42;;;;;;;;;;;;;;;11.94;72.16;99043.97;5031394;28;19917;-82
2024/03/08 11:55:08;;;;;;;;;;;;;;;11.68;72.94;99032.00;5014702;28;19929;-81
2024/03/08 11:57:33;;;;;;;;;;;;;;;11.27;76.35;99029.88;5032802;28;19988;-81
2024/03/08 12:00:08;;;;;;;;;;;;;;;10.83;78.21;99034.09;5030675;28;19917;-80
2024/03/08 12:02:38;;;;;;;;;;;;;;;11.00;77.78;99026.59;5014827;28;19917;-80
2024/03/08 12:05:03;;;;;;;;;;;;;;;11.36;77.26;99027.28;5030744;28;19917;-82
2024/03/08 12:07:29;;;;;;;;;;;;;;;11.26;75.31;99016.50;5030989;28;19931;-80
2024/03/08 12:10:17;;;;;;;;;;;;;;;11.41;77.71;99020.44;5019117;28;19939;-81
2024/03/08 12:12:43;;;;;;;;;;;;;;;11.27;73.52;99018.81;5047871;28;19920;-79
2024/03/08 12:15:08;;;;;;;;;;;;;;;11.43;74.28;99021.56;5041537;28;19917;-79
2024/03/08 12:17:34;;;;;;;;;;;;;;;11.18;76.89;99021.41;5013767;28;19917;-79
2024/03/08 12:20:12;;;;;;;;;;;;;;;11.18;78.03;99015.09;5038833;28;20369;-80
2024/03/08 12:22:40;;;;;;;;;;;;;;;11.37;77.40;99017.00;5016813;28;20342;-81
2024/03/08 12:25:10;;;;;;;;;;;;;;;11.43;75.72;99015.25;5030206;28;19913;-81
2024/03/08 12:27:36;;;;;;;;;;;;;;;11.42;74.91;99013.69;5029903;28;19917;-81
2024/03/08 12:30:15;;;;;;;;;;;;;;;11.19;74.72;99011.91;5028098;28;19913;-79
2024/03/08 12:32:46;;;;;;;;;;;;;;;11.24;77.67;99010.59;5027910;28;20012;-80
2024/03/08 12:35:11;;;;;;;;;;;;;;;11.24;76.64;99008.63;5029366;28;19917;-80
2024/03/08 12:37:37;;;;;;;;;;;;;;;11.42;75.83;99002.63;5011562;28;19936;-79
2024/03/08 12:40:07;;;;;;;;;;;;;;;11.43;79.62;98999.44;5027852;28;20401;-78
2024/03/08 12:42:32;;;;;;;;;;;;;;;11.12;78.50;99001.00;5017412;28;19996;-80
2024/03/08 12:44:59;;;;;;;;;;;;;;;10.69;79.59;98997.72;5029789;28;20016;-79
2024/03/08 12:47:24;;;;;;;;;;;;;;;10.91;79.38;99002.31;5023040;28;19917;-80
2024/03/08 12:49:50;;;;;;;;;;;;;;;11.14;78.67;98998.59;5023440;28;20327;-80
2024/03/08 12:52:18;;;;;;;;;;;;;;;11.55;73.43;99005.47;5031101;28;19967;-79